Atwater, California
Current Conditions -  °F | °C
As of 3:15 AM on Monday 22 Dec 2014 (Local Time) from KMER Reporting Station
Overcast Overcast  
Wind Chill: 57°   Ceiling: 600
Heat Index: 57°   Visibility: 7mi
Dew Point: 57°   Wind: 6mph
Humidity: 100%   Direction: 30°NNE
Pressure: 30.25"   Gusts: NA
Location:  37.35°N, 120.6°W
Report Text: KMER 221115Z AUTO 03005KT 7SM OVC006 14/14 A3025 RMK AO1
Loading
Personal Weather Stations






























Interactive Weather Map New forecast layout! Learn more

10-Day Weather Forecast

Advertisements
Track Severe Weather on mobile